sensor_id;sensor_type;location;lat;lon;timestamp;P1;durP1;ratioP1;P2;durP2;ratioP2
54921;SDS011;40824;45.116;21.296;2023-05-10T00:01:52;7.47;;;6.00;;
54921;SDS011;40824;45.116;21.296;2023-05-10T00:04:18;9.18;;;6.45;;
54921;SDS011;40824;45.116;21.296;2023-05-10T00:06:44;8.55;;;5.90;;
54921;SDS011;40824;45.116;21.296;2023-05-10T00:09:10;8.18;;;6.18;;
54921;SDS011;40824;45.116;21.296;2023-05-10T00:11:36;6.93;;;5.80;;
54921;SDS011;40824;45.116;21.296;2023-05-10T00:14:02;9.25;;;5.72;;
54921;SDS011;40824;45.116;21.296;2023-05-10T00:16:29;7.50;;;6.05;;
54921;SDS011;40824;45.116;21.296;2023-05-10T00:18:55;8.85;;;6.00;;
54921;SDS011;40824;45.116;21.296;2023-05-10T00:21:21;8.48;;;5.82;;
54921;SDS011;40824;45.116;21.296;2023-05-10T00:23:47;6.82;;;5.88;;
54921;SDS011;40824;45.116;21.296;2023-05-10T00:26:13;7.28;;;6.07;;
54921;SDS011;40824;45.116;21.296;2023-05-10T00:28:39;7.85;;;6.22;;
54921;SDS011;40824;45.116;21.296;2023-05-10T00:31:05;9.77;;;6.13;;
54921;SDS011;40824;45.116;21.296;2023-05-10T00:33:32;7.55;;;6.28;;
54921;SDS011;40824;45.116;21.296;2023-05-10T00:35:58;8.07;;;6.22;;
54921;SDS011;40824;45.116;21.296;2023-05-10T00:38:24;8.77;;;5.50;;
54921;SDS011;40824;45.116;21.296;2023-05-10T00:40:50;7.45;;;6.07;;
54921;SDS011;40824;45.116;21.296;2023-05-10T00:43:16;8.70;;;5.60;;
54921;SDS011;40824;45.116;21.296;2023-05-10T00:45:47;7.28;;;5.80;;
54921;SDS011;40824;45.116;21.296;2023-05-10T00:48:14;6.95;;;6.25;;
54921;SDS011;40824;45.116;21.296;2023-05-10T00:50:42;7.07;;;5.63;;
54921;SDS011;40824;45.116;21.296;2023-05-10T00:53:09;8.40;;;5.80;;
54921;SDS011;40824;45.116;21.296;2023-05-10T00:55:36;6.22;;;5.25;;
54921;SDS011;40824;45.116;21.296;2023-05-10T00:58:02;8.73;;;5.80;;
54921;SDS011;40824;45.116;21.296;2023-05-10T01:00:28;6.75;;;5.65;;
54921;SDS011;40824;45.116;21.296;2023-05-10T01:02:54;6.68;;;5.50;;
54921;SDS011;40824;45.116;21.296;2023-05-10T01:05:21;7.97;;;5.93;;
54921;SDS011;40824;45.116;21.296;2023-05-10T01:07:47;8.80;;;5.55;;
54921;SDS011;40824;45.116;21.296;2023-05-10T01:10:13;7.47;;;5.72;;
54921;SDS011;40824;45.116;21.296;2023-05-10T01:12:40;6.05;;;5.18;;
54921;SDS011;40824;45.116;21.296;2023-05-10T01:15:06;7.43;;;5.88;;
54921;SDS011;40824;45.116;21.296;2023-05-10T01:17:34;7.28;;;5.28;;
54921;SDS011;40824;45.116;21.296;2023-05-10T01:20:01;8.90;;;6.22;;
54921;SDS011;40824;45.116;21.296;2023-05-10T01:30:08;10.38;;;6.97;;
54921;SDS011;40824;45.116;21.296;2023-05-10T01:35:51;7.18;;;5.60;;
54921;SDS011;40824;45.116;21.296;2023-05-10T01:43:21;7.78;;;6.38;;
54921;SDS011;40824;45.116;21.296;2023-05-10T01:48:41;10.23;;;6.25;;
54921;SDS011;40824;45.116;21.296;2023-05-10T01:51:12;9.55;;;6.47;;
54921;SDS011;40824;45.116;21.296;2023-05-10T01:53:38;9.68;;;6.25;;
54921;SDS011;40824;45.116;21.296;2023-05-10T01:56:05;10.73;;;6.18;;
54921;SDS011;40824;45.116;21.296;2023-05-10T01:58:33;7.38;;;6.15;;
54921;SDS011;40824;45.116;21.296;2023-05-10T02:01:01;7.22;;;6.03;;
54921;SDS011;40824;45.116;21.296;2023-05-10T02:03:28;7.63;;;5.82;;
54921;SDS011;40824;45.116;21.296;2023-05-10T02:05:57;7.68;;;6.47;;
54921;SDS011;40824;45.116;21.296;2023-05-10T02:08:23;7.55;;;6.63;;
54921;SDS011;40824;45.116;21.296;2023-05-10T02:10:53;7.38;;;6.25;;
54921;SDS011;40824;45.116;21.296;2023-05-10T02:13:20;6.88;;;6.18;;
54921;SDS011;40824;45.116;21.296;2023-05-10T02:15:48;10.52;;;7.05;;
54921;SDS011;40824;45.116;21.296;2023-05-10T02:18:15;9.32;;;7.70;;
54921;SDS011;40824;45.116;21.296;2023-05-10T02:20:46;8.90;;;7.45;;
54921;SDS011;40824;45.116;21.296;2023-05-10T02:23:13;9.48;;;6.80;;
54921;SDS011;40824;45.116;21.296;2023-05-10T02:25:40;8.85;;;7.57;;
54921;SDS011;40824;45.116;21.296;2023-05-10T02:28:07;10.40;;;6.93;;
54921;SDS011;40824;45.116;21.296;2023-05-10T02:30:33;10.75;;;6.75;;
54921;SDS011;40824;45.116;21.296;2023-05-10T02:33:00;9.50;;;7.65;;
54921;SDS011;40824;45.116;21.296;2023-05-10T02:35:28;8.85;;;6.75;;
54921;SDS011;40824;45.116;21.296;2023-05-10T02:37:54;10.25;;;7.35;;
54921;SDS011;40824;45.116;21.296;2023-05-10T02:40:22;10.93;;;7.10;;
54921;SDS011;40824;45.116;21.296;2023-05-10T02:42:48;9.32;;;6.60;;
54921;SDS011;40824;45.116;21.296;2023-05-10T02:45:20;7.80;;;6.35;;
54921;SDS011;40824;45.116;21.296;2023-05-10T02:47:48;7.38;;;6.25;;
54921;SDS011;40824;45.116;21.296;2023-05-10T02:50:14;11.20;;;7.65;;
54921;SDS011;40824;45.116;21.296;2023-05-10T02:52:44;8.18;;;7.30;;
54921;SDS011;40824;45.116;21.296;2023-05-10T02:55:11;9.85;;;7.70;;
54921;SDS011;40824;45.116;21.296;2023-05-10T02:57:39;10.10;;;7.78;;
54921;SDS011;40824;45.116;21.296;2023-05-10T03:00:06;9.98;;;8.68;;
54921;SDS011;40824;45.116;21.296;2023-05-10T03:02:33;9.07;;;8.18;;
54921;SDS011;40824;45.116;21.296;2023-05-10T03:05:01;11.65;;;8.65;;
54921;SDS011;40824;45.116;21.296;2023-05-10T03:07:28;10.05;;;8.82;;
54921;SDS011;40824;45.116;21.296;2023-05-10T03:09:54;12.05;;;8.60;;
54921;SDS011;40824;45.116;21.296;2023-05-10T03:12:47;9.90;;;8.43;;
54921;SDS011;40824;45.116;21.296;2023-05-10T03:20:03;11.85;;;9.07;;
54921;SDS011;40824;45.116;21.296;2023-05-10T03:22:40;10.05;;;8.32;;
54921;SDS011;40824;45.116;21.296;2023-05-10T03:25:10;9.57;;;8.57;;
54921;SDS011;40824;45.116;21.296;2023-05-10T03:27:37;11.98;;;8.77;;
54921;SDS011;40824;45.116;21.296;2023-05-10T03:30:05;10.45;;;8.43;;
54921;SDS011;40824;45.116;21.296;2023-05-10T03:32:31;10.30;;;9.10;;
54921;SDS011;40824;45.116;21.296;2023-05-10T03:34:59;9.75;;;8.75;;
54921;SDS011;40824;45.116;21.296;2023-05-10T03:37:25;11.40;;;8.43;;
54921;SDS011;40824;45.116;21.296;2023-05-10T03:39:51;9.93;;;8.90;;
54921;SDS011;40824;45.116;21.296;2023-05-10T03:42:17;10.10;;;9.10;;
54921;SDS011;40824;45.116;21.296;2023-05-10T03:44:43;11.32;;;8.52;;
54921;SDS011;40824;45.116;21.296;2023-05-10T03:47:10;10.13;;;8.43;;
54921;SDS011;40824;45.116;21.296;2023-05-10T03:49:36;9.82;;;8.82;;
54921;SDS011;40824;45.116;21.296;2023-05-10T03:52:02;9.75;;;8.25;;
54921;SDS011;40824;45.116;21.296;2023-05-10T03:54:28;10.20;;;8.50;;
54921;SDS011;40824;45.116;21.296;2023-05-10T03:56:54;9.48;;;7.90;;
54921;SDS011;40824;45.116;21.296;2023-05-10T03:59:20;10.18;;;8.60;;
54921;SDS011;40824;45.116;21.296;2023-05-10T04:01:46;10.10;;;8.57;;
54921;SDS011;40824;45.116;21.296;2023-05-10T04:04:12;10.48;;;8.80;;
54921;SDS011;40824;45.116;21.296;2023-05-10T04:06:38;7.78;;;7.07;;
54921;SDS011;40824;45.116;21.296;2023-05-10T04:09:12;9.80;;;7.38;;
54921;SDS011;40824;45.116;21.296;2023-05-10T04:11:38;8.05;;;6.65;;
54921;SDS011;40824;45.116;21.296;2023-05-10T04:14:04;8.13;;;6.50;;
54921;SDS011;40824;45.116;21.296;2023-05-10T04:16:30;8.23;;;7.40;;
54921;SDS011;40824;45.116;21.296;2023-05-10T04:18:57;8.27;;;6.43;;
54921;SDS011;40824;45.116;21.296;2023-05-10T04:21:23;7.35;;;6.45;;
54921;SDS011;40824;45.116;21.296;2023-05-10T04:23:49;8.20;;;6.05;;
54921;SDS011;40824;45.116;21.296;2023-05-10T04:26:15;7.55;;;6.03;;
54921;SDS011;40824;45.116;21.296;2023-05-10T04:28:41;7.75;;;6.22;;
54921;SDS011;40824;45.116;21.296;2023-05-10T04:31:08;6.93;;;5.72;;
54921;SDS011;40824;45.116;21.296;2023-05-10T04:33:34;7.55;;;6.03;;
54921;SDS011;40824;45.116;21.296;2023-05-10T04:36:01;7.78;;;6.07;;
54921;SDS011;40824;45.116;21.296;2023-05-10T04:38:27;8.50;;;6.28;;
54921;SDS011;40824;45.116;21.296;2023-05-10T04:40:53;7.15;;;5.13;;
54921;SDS011;40824;45.116;21.296;2023-05-10T04:43:19;5.53;;;4.80;;
54921;SDS011;40824;45.116;21.296;2023-05-10T04:45:45;7.38;;;5.43;;
54921;SDS011;40824;45.116;21.296;2023-05-10T04:48:12;8.18;;;5.30;;
54921;SDS011;40824;45.116;21.296;2023-05-10T04:50:38;5.80;;;4.82;;
54921;SDS011;40824;45.116;21.296;2023-05-10T04:53:07;10.32;;;5.03;;
54921;SDS011;40824;45.116;21.296;2023-05-10T04:55:33;5.43;;;4.70;;
54921;SDS011;40824;45.116;21.296;2023-05-10T04:57:59;8.23;;;5.13;;
54921;SDS011;40824;45.116;21.296;2023-05-10T05:00:25;7.85;;;4.72;;
54921;SDS011;40824;45.116;21.296;2023-05-10T05:02:51;11.00;;;5.22;;
54921;SDS011;40824;45.116;21.296;2023-05-10T05:05:17;6.72;;;4.85;;
54921;SDS011;40824;45.116;21.296;2023-05-10T05:07:44;8.85;;;4.32;;
54921;SDS011;40824;45.116;21.296;2023-05-10T05:10:10;5.47;;;4.80;;
54921;SDS011;40824;45.116;21.296;2023-05-10T05:12:36;6.55;;;5.13;;
54921;SDS011;40824;45.116;21.296;2023-05-10T05:15:02;8.27;;;5.03;;
54921;SDS011;40824;45.116;21.296;2023-05-10T05:17:29;8.57;;;5.13;;
54921;SDS011;40824;45.116;21.296;2023-05-10T05:19:56;5.75;;;5.03;;
54921;SDS011;40824;45.116;21.296;2023-05-10T05:22:22;9.25;;;5.80;;
54921;SDS011;40824;45.116;21.296;2023-05-10T05:24:54;7.60;;;5.40;;
54921;SDS011;40824;45.116;21.296;2023-05-10T05:27:21;9.48;;;5.93;;
54921;SDS011;40824;45.116;21.296;2023-05-10T05:29:49;7.28;;;5.30;;
54921;SDS011;40824;45.116;21.296;2023-05-10T05:32:16;7.40;;;5.43;;
54921;SDS011;40824;45.116;21.296;2023-05-10T05:34:44;8.20;;;5.78;;
54921;SDS011;40824;45.116;21.296;2023-05-10T05:37:17;6.10;;;5.22;;
54921;SDS011;40824;45.116;21.296;2023-05-10T05:39:43;8.15;;;5.18;;
54921;SDS011;40824;45.116;21.296;2023-05-10T05:42:10;7.50;;;4.85;;
54921;SDS011;40824;45.116;21.296;2023-05-10T05:44:36;8.32;;;4.95;;
54921;SDS011;40824;45.116;21.296;2023-05-10T05:47:02;5.80;;;4.55;;
54921;SDS011;40824;45.116;21.296;2023-05-10T05:49:29;5.70;;;4.70;;
54921;SDS011;40824;45.116;21.296;2023-05-10T05:51:59;6.85;;;4.53;;
54921;SDS011;40824;45.116;21.296;2023-05-10T05:54:25;10.18;;;4.45;;
54921;SDS011;40824;45.116;21.296;2023-05-10T05:56:57;4.95;;;4.00;;
54921;SDS011;40824;45.116;21.296;2023-05-10T05:59:23;8.75;;;4.30;;
54921;SDS011;40824;45.116;21.296;2023-05-10T06:01:49;6.35;;;4.10;;
54921;SDS011;40824;45.116;21.296;2023-05-10T06:04:16;7.22;;;3.47;;
54921;SDS011;40824;45.116;21.296;2023-05-10T06:06:42;10.20;;;3.90;;
54921;SDS011;40824;45.116;21.296;2023-05-10T06:09:08;8.85;;;3.70;;
54921;SDS011;40824;45.116;21.296;2023-05-10T06:11:35;9.23;;;4.22;;
54921;SDS011;40824;45.116;21.296;2023-05-10T06:14:01;5.90;;;4.03;;
54921;SDS011;40824;45.116;21.296;2023-05-10T06:16:29;8.05;;;4.68;;
54921;SDS011;40824;45.116;21.296;2023-05-10T06:18:55;8.18;;;3.83;;
54921;SDS011;40824;45.116;21.296;2023-05-10T06:21:21;7.18;;;4.85;;
54921;SDS011;40824;45.116;21.296;2023-05-10T06:23:47;8.90;;;3.50;;
54921;SDS011;40824;45.116;21.296;2023-05-10T06:26:13;6.57;;;4.13;;
54921;SDS011;40824;45.116;21.296;2023-05-10T06:28:39;6.07;;;4.20;;
54921;SDS011;40824;45.116;21.296;2023-05-10T06:31:06;5.85;;;3.88;;
54921;SDS011;40824;45.116;21.296;2023-05-10T06:33:32;4.75;;;3.95;;
54921;SDS011;40824;45.116;21.296;2023-05-10T06:35:58;4.72;;;4.13;;
54921;SDS011;40824;45.116;21.296;2023-05-10T06:38:24;5.80;;;4.10;;
54921;SDS011;40824;45.116;21.296;2023-05-10T06:40:50;6.60;;;3.95;;
54921;SDS011;40824;45.116;21.296;2023-05-10T06:43:17;10.07;;;4.32;;
54921;SDS011;40824;45.116;21.296;2023-05-10T06:45:43;5.97;;;4.30;;
54921;SDS011;40824;45.116;21.296;2023-05-10T06:48:09;5.75;;;3.63;;
54921;SDS011;40824;45.116;21.296;2023-05-10T06:50:35;5.63;;;3.75;;
54921;SDS011;40824;45.116;21.296;2023-05-10T06:53:02;10.32;;;3.67;;
54921;SDS011;40824;45.116;21.296;2023-05-10T06:55:28;7.38;;;4.15;;
54921;SDS011;40824;45.116;21.296;2023-05-10T06:57:54;5.47;;;3.70;;
54921;SDS011;40824;45.116;21.296;2023-05-10T07:00:20;8.05;;;3.90;;
54921;SDS011;40824;45.116;21.296;2023-05-10T07:02:47;6.00;;;3.90;;
54921;SDS011;40824;45.116;21.296;2023-05-10T07:05:13;10.77;;;3.90;;
54921;SDS011;40824;45.116;21.296;2023-05-10T07:07:40;8.32;;;3.83;;
54921;SDS011;40824;45.116;21.296;2023-05-10T07:10:06;7.50;;;3.58;;
54921;SDS011;40824;45.116;21.296;2023-05-10T07:12:33;6.22;;;3.50;;
54921;SDS011;40824;45.116;21.296;2023-05-10T07:14:59;8.02;;;3.80;;
54921;SDS011;40824;45.116;21.296;2023-05-10T07:17:25;7.32;;;3.80;;
54921;SDS011;40824;45.116;21.296;2023-05-10T07:19:51;6.63;;;3.88;;
54921;SDS011;40824;45.116;21.296;2023-05-10T07:22:17;6.30;;;3.60;;
54921;SDS011;40824;45.116;21.296;2023-05-10T07:24:45;7.50;;;3.65;;
54921;SDS011;40824;45.116;21.296;2023-05-10T07:27:11;5.00;;;3.47;;
54921;SDS011;40824;45.116;21.296;2023-05-10T07:29:38;6.10;;;4.00;;
54921;SDS011;40824;45.116;21.296;2023-05-10T07:32:04;9.20;;;3.95;;
54921;SDS011;40824;45.116;21.296;2023-05-10T07:34:30;8.85;;;3.78;;
54921;SDS011;40824;45.116;21.296;2023-05-10T07:36:59;6.43;;;3.50;;
54921;SDS011;40824;45.116;21.296;2023-05-10T07:39:26;9.10;;;3.22;;
54921;SDS011;40824;45.116;21.296;2023-05-10T07:41:52;8.45;;;4.07;;
54921;SDS011;40824;45.116;21.296;2023-05-10T07:44:18;8.77;;;3.70;;
54921;SDS011;40824;45.116;21.296;2023-05-10T07:46:45;4.60;;;3.30;;
54921;SDS011;40824;45.116;21.296;2023-05-10T07:49:13;9.60;;;4.22;;
54921;SDS011;40824;45.116;21.296;2023-05-10T07:51:39;7.32;;;3.20;;
54921;SDS011;40824;45.116;21.296;2023-05-10T07:54:05;6.85;;;3.50;;
54921;SDS011;40824;45.116;21.296;2023-05-10T07:56:31;8.32;;;4.07;;
54921;SDS011;40824;45.116;21.296;2023-05-10T07:59:01;7.93;;;3.60;;
54921;SDS011;40824;45.116;21.296;2023-05-10T08:01:32;6.80;;;3.33;;
54921;SDS011;40824;45.116;21.296;2023-05-10T08:03:58;7.82;;;3.28;;
54921;SDS011;40824;45.116;21.296;2023-05-10T08:06:24;7.22;;;3.38;;
54921;SDS011;40824;45.116;21.296;2023-05-10T08:08:55;5.85;;;3.35;;
54921;SDS011;40824;45.116;21.296;2023-05-10T08:11:21;5.50;;;3.40;;
54921;SDS011;40824;45.116;21.296;2023-05-10T08:13:48;8.40;;;3.35;;
54921;SDS011;40824;45.116;21.296;2023-05-10T08:16:14;5.80;;;3.28;;
54921;SDS011;40824;45.116;21.296;2023-05-10T08:18:40;5.63;;;3.30;;
54921;SDS011;40824;45.116;21.296;2023-05-10T08:21:06;8.10;;;3.20;;
54921;SDS011;40824;45.116;21.296;2023-05-10T08:23:33;3.97;;;3.20;;
54921;SDS011;40824;45.116;21.296;2023-05-10T08:25:59;4.90;;;3.00;;
54921;SDS011;40824;45.116;21.296;2023-05-10T08:28:25;6.25;;;3.38;;
54921;SDS011;40824;45.116;21.296;2023-05-10T08:30:52;6.28;;;3.30;;
54921;SDS011;40824;45.116;21.296;2023-05-10T08:33:18;7.97;;;3.15;;
54921;SDS011;40824;45.116;21.296;2023-05-10T08:35:44;5.57;;;3.78;;
54921;SDS011;40824;45.116;21.296;2023-05-10T08:38:10;3.70;;;3.17;;
54921;SDS011;40824;45.116;21.296;2023-05-10T08:40:37;6.05;;;3.08;;
54921;SDS011;40824;45.116;21.296;2023-05-10T08:43:09;6.45;;;3.30;;
54921;SDS011;40824;45.116;21.296;2023-05-10T08:45:39;9.00;;;3.90;;
54921;SDS011;40824;45.116;21.296;2023-05-10T08:48:06;5.05;;;3.17;;
54921;SDS011;40824;45.116;21.296;2023-05-10T08:50:36;9.57;;;2.95;;
54921;SDS011;40824;45.116;21.296;2023-05-10T08:53:03;8.65;;;3.20;;
54921;SDS011;40824;45.116;21.296;2023-05-10T08:55:30;3.90;;;2.78;;
54921;SDS011;40824;45.116;21.296;2023-05-10T08:57:57;6.13;;;3.00;;
54921;SDS011;40824;45.116;21.296;2023-05-10T09:00:24;4.25;;;3.15;;
54921;SDS011;40824;45.116;21.296;2023-05-10T09:02:50;4.82;;;3.10;;
54921;SDS011;40824;45.116;21.296;2023-05-10T09:05:16;5.32;;;3.20;;
54921;SDS011;40824;45.116;21.296;2023-05-10T09:07:42;8.57;;;3.30;;
54921;SDS011;40824;45.116;21.296;2023-05-10T09:10:09;5.60;;;2.95;;
54921;SDS011;40824;45.116;21.296;2023-05-10T09:12:35;6.60;;;3.10;;
54921;SDS011;40824;45.116;21.296;2023-05-10T09:15:01;7.75;;;3.20;;
54921;SDS011;40824;45.116;21.296;2023-05-10T09:17:27;6.93;;;2.90;;
54921;SDS011;40824;45.116;21.296;2023-05-10T09:20:01;7.20;;;2.70;;
54921;SDS011;40824;45.116;21.296;2023-05-10T09:22:27;5.43;;;3.25;;
54921;SDS011;40824;45.116;21.296;2023-05-10T09:27:49;7.72;;;3.22;;
54921;SDS011;40824;45.116;21.296;2023-05-10T09:32:50;5.53;;;3.20;;
54921;SDS011;40824;45.116;21.296;2023-05-10T09:35:17;8.05;;;3.17;;
54921;SDS011;40824;45.116;21.296;2023-05-10T09:37:47;4.95;;;3.05;;
54921;SDS011;40824;45.116;21.296;2023-05-10T09:40:15;4.30;;;3.08;;
54921;SDS011;40824;45.116;21.296;2023-05-10T09:42:42;6.30;;;4.32;;
54921;SDS011;40824;45.116;21.296;2023-05-10T09:45:08;7.57;;;2.70;;
54921;SDS011;40824;45.116;21.296;2023-05-10T09:47:35;6.78;;;2.70;;
54921;SDS011;40824;45.116;21.296;2023-05-10T09:50:02;7.05;;;3.13;;
54921;SDS011;40824;45.116;21.296;2023-05-10T09:55:14;7.85;;;3.17;;
54921;SDS011;40824;45.116;21.296;2023-05-10T09:57:42;11.57;;;3.72;;
54921;SDS011;40824;45.116;21.296;2023-05-10T10:00:08;6.07;;;3.08;;
54921;SDS011;40824;45.116;21.296;2023-05-10T10:02:38;4.43;;;2.75;;
54921;SDS011;40824;45.116;21.296;2023-05-10T10:05:06;9.38;;;3.25;;
54921;SDS011;40824;45.116;21.296;2023-05-10T10:07:32;6.75;;;4.20;;
54921;SDS011;40824;45.116;21.296;2023-05-10T10:09:58;9.35;;;3.08;;
54921;SDS011;40824;45.116;21.296;2023-05-10T10:12:25;7.10;;;3.50;;
54921;SDS011;40824;45.116;21.296;2023-05-10T10:14:51;6.63;;;2.88;;
54921;SDS011;40824;45.116;21.296;2023-05-10T10:17:18;14.52;;;7.05;;
54921;SDS011;40824;45.116;21.296;2023-05-10T10:19:47;7.10;;;2.72;;
54921;SDS011;40824;45.116;21.296;2023-05-10T10:22:14;4.70;;;2.70;;
54921;SDS011;40824;45.116;21.296;2023-05-10T10:24:41;10.57;;;3.50;;
54921;SDS011;40824;45.116;21.296;2023-05-10T10:27:20;5.40;;;2.63;;
54921;SDS011;40824;45.116;21.296;2023-05-10T10:29:49;6.13;;;2.97;;
54921;SDS011;40824;45.116;21.296;2023-05-10T10:34:46;8.27;;;2.90;;
54921;SDS011;40824;45.116;21.296;2023-05-10T10:37:14;6.57;;;3.08;;
54921;SDS011;40824;45.116;21.296;2023-05-10T10:39:40;3.65;;;2.42;;
54921;SDS011;40824;45.116;21.296;2023-05-10T10:42:06;11.50;;;3.85;;
54921;SDS011;40824;45.116;21.296;2023-05-10T10:44:33;4.55;;;2.45;;
54921;SDS011;40824;45.116;21.296;2023-05-10T10:47:07;6.28;;;2.97;;
54921;SDS011;40824;45.116;21.296;2023-05-10T10:49:37;5.38;;;2.38;;
54921;SDS011;40824;45.116;21.296;2023-05-10T10:54:46;7.97;;;3.28;;
54921;SDS011;40824;45.116;21.296;2023-05-10T10:57:17;11.25;;;4.97;;
54921;SDS011;40824;45.116;21.296;2023-05-10T10:59:43;5.43;;;2.28;;
54921;SDS011;40824;45.116;21.296;2023-05-10T11:02:17;6.70;;;2.83;;
54921;SDS011;40824;45.116;21.296;2023-05-10T11:04:56;4.78;;;3.25;;
54921;SDS011;40824;45.116;21.296;2023-05-10T11:07:22;10.68;;;4.75;;
54921;SDS011;40824;45.116;21.296;2023-05-10T11:09:50;7.63;;;2.72;;
54921;SDS011;40824;45.116;21.296;2023-05-10T11:12:16;5.95;;;2.90;;
54921;SDS011;40824;45.116;21.296;2023-05-10T11:14:42;4.85;;;2.63;;
54921;SDS011;40824;45.116;21.296;2023-05-10T11:17:24;14.90;;;3.45;;
54921;SDS011;40824;45.116;21.296;2023-05-10T11:20:06;8.57;;;2.88;;
54921;SDS011;40824;45.116;21.296;2023-05-10T11:22:48;8.88;;;3.10;;
54921;SDS011;40824;45.116;21.296;2023-05-10T11:25:17;6.93;;;3.50;;
54921;SDS011;40824;45.116;21.296;2023-05-10T11:27:43;6.22;;;2.75;;
54921;SDS011;40824;45.116;21.296;2023-05-10T11:30:10;5.82;;;2.65;;
54921;SDS011;40824;45.116;21.296;2023-05-10T11:32:37;10.63;;;3.63;;
54921;SDS011;40824;45.116;21.296;2023-05-10T11:35:07;7.47;;;3.17;;
54921;SDS011;40824;45.116;21.296;2023-05-10T11:37:33;6.80;;;3.85;;
54921;SDS011;40824;45.116;21.296;2023-05-10T11:39:59;4.57;;;2.72;;
54921;SDS011;40824;45.116;21.296;2023-05-10T11:42:27;6.40;;;2.80;;
54921;SDS011;40824;45.116;21.296;2023-05-10T11:44:53;5.30;;;2.42;;
54921;SDS011;40824;45.116;21.296;2023-05-10T11:47:19;4.88;;;2.90;;
54921;SDS011;40824;45.116;21.296;2023-05-10T11:49:46;9.07;;;3.17;;
54921;SDS011;40824;45.116;21.296;2023-05-10T11:52:12;9.00;;;3.15;;
54921;SDS011;40824;45.116;21.296;2023-05-10T11:54:44;8.52;;;2.92;;
54921;SDS011;40824;45.116;21.296;2023-05-10T11:57:11;8.43;;;2.95;;
54921;SDS011;40824;45.116;21.296;2023-05-10T11:59:37;7.03;;;2.95;;
54921;SDS011;40824;45.116;21.296;2023-05-10T12:02:03;11.50;;;3.30;;
54921;SDS011;40824;45.116;21.296;2023-05-10T12:04:29;9.90;;;3.35;;
54921;SDS011;40824;45.116;21.296;2023-05-10T12:06:55;6.30;;;2.90;;
54921;SDS011;40824;45.116;21.296;2023-05-10T12:09:21;5.18;;;2.42;;
54921;SDS011;40824;45.116;21.296;2023-05-10T12:11:48;4.03;;;2.97;;
54921;SDS011;40824;45.116;21.296;2023-05-10T12:14:14;9.25;;;3.03;;
54921;SDS011;40824;45.116;21.296;2023-05-10T12:16:40;7.15;;;2.95;;
54921;SDS011;40824;45.116;21.296;2023-05-10T12:19:08;4.68;;;3.10;;
54921;SDS011;40824;45.116;21.296;2023-05-10T12:21:34;10.57;;;3.75;;
54921;SDS011;40824;45.116;21.296;2023-05-10T12:24:03;6.05;;;2.97;;
54921;SDS011;40824;45.116;21.296;2023-05-10T12:26:32;4.75;;;2.85;;
54921;SDS011;40824;45.116;21.296;2023-05-10T12:29:16;5.80;;;3.20;;
54921;SDS011;40824;45.116;21.296;2023-05-10T12:31:49;7.93;;;2.83;;
54921;SDS011;40824;45.116;21.296;2023-05-10T12:36:53;4.00;;;3.20;;
54921;SDS011;40824;45.116;21.296;2023-05-10T12:39:19;8.90;;;3.05;;
54921;SDS011;40824;45.116;21.296;2023-05-10T12:41:45;7.97;;;2.92;;
54921;SDS011;40824;45.116;21.296;2023-05-10T12:44:11;6.45;;;3.17;;
54921;SDS011;40824;45.116;21.296;2023-05-10T12:46:37;8.73;;;2.90;;
54921;SDS011;40824;45.116;21.296;2023-05-10T12:49:03;5.30;;;3.20;;
54921;SDS011;40824;45.116;21.296;2023-05-10T12:51:30;8.98;;;3.10;;
54921;SDS011;40824;45.116;21.296;2023-05-10T12:53:56;9.23;;;3.63;;
54921;SDS011;40824;45.116;21.296;2023-05-10T12:56:22;5.97;;;2.90;;
54921;SDS011;40824;45.116;21.296;2023-05-10T12:58:48;6.70;;;2.83;;
54921;SDS011;40824;45.116;21.296;2023-05-10T13:01:14;8.23;;;2.95;;
54921;SDS011;40824;45.116;21.296;2023-05-10T13:03:40;4.43;;;2.85;;
54921;SDS011;40824;45.116;21.296;2023-05-10T13:06:08;4.78;;;2.50;;
54921;SDS011;40824;45.116;21.296;2023-05-10T13:08:34;6.05;;;3.28;;
54921;SDS011;40824;45.116;21.296;2023-05-10T13:11:00;5.30;;;2.72;;
54921;SDS011;40824;45.116;21.296;2023-05-10T13:13:27;5.43;;;3.20;;
54921;SDS011;40824;45.116;21.296;2023-05-10T13:15:53;4.20;;;2.95;;
54921;SDS011;40824;45.116;21.296;2023-05-10T13:18:19;4.63;;;2.85;;
54921;SDS011;40824;45.116;21.296;2023-05-10T13:20:45;8.45;;;3.10;;
54921;SDS011;40824;45.116;21.296;2023-05-10T13:23:11;3.97;;;2.75;;
54921;SDS011;40824;45.116;21.296;2023-05-10T13:25:37;5.20;;;2.92;;
54921;SDS011;40824;45.116;21.296;2023-05-10T13:28:04;8.48;;;3.10;;
54921;SDS011;40824;45.116;21.296;2023-05-10T13:30:30;7.85;;;3.22;;
54921;SDS011;40824;45.116;21.296;2023-05-10T13:32:56;4.97;;;3.10;;
54921;SDS011;40824;45.116;21.296;2023-05-10T13:35:23;7.72;;;2.47;;
54921;SDS011;40824;45.116;21.296;2023-05-10T13:37:49;9.45;;;3.03;;
54921;SDS011;40824;45.116;21.296;2023-05-10T13:40:15;9.07;;;3.65;;
54921;SDS011;40824;45.116;21.296;2023-05-10T13:42:41;5.38;;;2.83;;
54921;SDS011;40824;45.116;21.296;2023-05-10T13:45:08;4.80;;;2.53;;
54921;SDS011;40824;45.116;21.296;2023-05-10T13:47:34;6.45;;;2.78;;
54921;SDS011;40824;45.116;21.296;2023-05-10T13:50:01;6.60;;;3.15;;
54921;SDS011;40824;45.116;21.296;2023-05-10T13:52:28;4.25;;;2.72;;
54921;SDS011;40824;45.116;21.296;2023-05-10T13:54:54;7.13;;;2.70;;
54921;SDS011;40824;45.116;21.296;2023-05-10T13:57:21;4.05;;;2.58;;
54921;SDS011;40824;45.116;21.296;2023-05-10T13:59:47;6.38;;;2.63;;
54921;SDS011;40824;45.116;21.296;2023-05-10T14:02:14;6.15;;;2.90;;
54921;SDS011;40824;45.116;21.296;2023-05-10T14:04:40;6.75;;;3.13;;
54921;SDS011;40824;45.116;21.296;2023-05-10T14:07:06;6.35;;;3.25;;
54921;SDS011;40824;45.116;21.296;2023-05-10T14:09:32;11.05;;;3.20;;
54921;SDS011;40824;45.116;21.296;2023-05-10T14:11:58;8.25;;;3.20;;
54921;SDS011;40824;45.116;21.296;2023-05-10T14:14:24;7.68;;;2.70;;
54921;SDS011;40824;45.116;21.296;2023-05-10T14:16:52;5.00;;;2.60;;
54921;SDS011;40824;45.116;21.296;2023-05-10T14:19:18;7.00;;;2.65;;
54921;SDS011;40824;45.116;21.296;2023-05-10T14:21:44;4.97;;;2.70;;
54921;SDS011;40824;45.116;21.296;2023-05-10T14:24:10;7.18;;;2.90;;
54921;SDS011;40824;45.116;21.296;2023-05-10T14:26:36;8.73;;;2.90;;
54921;SDS011;40824;45.116;21.296;2023-05-10T14:29:02;5.15;;;2.45;;
54921;SDS011;40824;45.116;21.296;2023-05-10T14:31:28;10.93;;;3.65;;
54921;SDS011;40824;45.116;21.296;2023-05-10T14:33:55;6.63;;;2.92;;
54921;SDS011;40824;45.116;21.296;2023-05-10T14:36:22;6.10;;;2.90;;
54921;SDS011;40824;45.116;21.296;2023-05-10T14:38:48;4.35;;;2.53;;
54921;SDS011;40824;45.116;21.296;2023-05-10T14:41:15;4.93;;;2.78;;
54921;SDS011;40824;45.116;21.296;2023-05-10T14:43:43;6.93;;;2.50;;
54921;SDS011;40824;45.116;21.296;2023-05-10T14:46:11;5.10;;;2.80;;
54921;SDS011;40824;45.116;21.296;2023-05-10T14:48:37;7.03;;;3.13;;
54921;SDS011;40824;45.116;21.296;2023-05-10T14:51:03;5.55;;;2.58;;
54921;SDS011;40824;45.116;21.296;2023-05-10T14:53:29;8.23;;;2.63;;
54921;SDS011;40824;45.116;21.296;2023-05-10T14:55:55;7.10;;;2.70;;
54921;SDS011;40824;45.116;21.296;2023-05-10T14:58:21;4.07;;;2.60;;
54921;SDS011;40824;45.116;21.296;2023-05-10T15:00:47;5.40;;;2.63;;
54921;SDS011;40824;45.116;21.296;2023-05-10T15:03:13;4.28;;;2.30;;
54921;SDS011;40824;45.116;21.296;2023-05-10T15:05:40;9.82;;;2.90;;
54921;SDS011;40824;45.116;21.296;2023-05-10T15:08:06;5.03;;;2.90;;
54921;SDS011;40824;45.116;21.296;2023-05-10T15:10:32;5.63;;;2.58;;
54921;SDS011;40824;45.116;21.296;2023-05-10T15:12:58;3.47;;;2.55;;